Main page
METAR-TAF:

METAR-TAF

Airports :

Chandigarh International Airport

Chandigarh, India

latitude: 30-40-29N, longitude: 76-47-26E, elevation: 314 m

Current weather observation

The report was made 55 minutes ago, at 01:30 UTC
Wind 4 kt from the Northeast
Temperature 29°C
Humidity 100%
Pressure 999 hPa
Visibility: 6000 m
Few clouds at a height of 10000 ft

METAR: VICG 150130Z 04004KT 6000 FEW100 29/29 Q0999 NOSIG

Time: 07:55 (02:25 UTC)

Forecast

The report was made 10 hours and 55 minutes ago, at 15:30 UTC
Forecast valid from 14 at 18 UTC to 15 at 06 UTC
Wind 5 kt from the Southeast
Visibility: 5000 m
Scattered clouds at a height of 2500 ft
Scattered clouds at a height of 25000 ft
mist
Temporary
from 15 at 00 UTC to 15 at 02 UTC
Visibility: 3000 m
Scattered clouds at a height of 2000 ft
Scattered clouds at a height of 10000 ft
mist

TAF: VICG 141530Z 1418/1506 14005KT 5000 BR SCT025 SCT250 TEMPO 1500/1502 3000 BR SCT020 FEW030TCU/CB SCT100

Weather observations and forecasts of more than 4000 airports (METAR and TAF reports).

The available stations are represented by yellow and red dots on the map.

Hover mouse over dot to see the name of the station.

Then click to see weather observations and forecasts.

To change the map : click on the green buttons with a black cross to zoom in, on the green button with a dash to zoom out, or on the green arrows for adjacent maps.


METAR-TAF: